Terminal Aerodrome Forecast
Issued by NWS Sterling, VA

Current Version | Previous Version | Text Only | Print | Product List | Glossary Off
Versions: 1 2 3 4 5 6 7 8 9 10 11 12 13 14 15 16 17 18 19

851
FTUS41 KLWX 261503 AAA
TAFMRB
TAF AMD
KMRB 261503Z 2615/2712 16010KT P6SM BKN015 OVC025
     FM262200 16011KT P6SM BKN030 OVC035
     FM270000 17009KT P6SM -SHRA BKN020 OVC035
     FM270400 23005KT 4SM -SHRA BR BKN008 OVC035
     FM270600 28005KT 6SM BR BKN015 BKN080
     FM270900 29005KT 4SM BR BKN100 BKN250=

USA.gov is the U.S. government's official web portal to all federal, state and local government web resources and services.